ΕΜΥ, Εθνική Μετεωρολογική Υπηρεσία - Δελτία Καιρού, Προγνώσεις

ΑΕΡΟΝΑΥΤΙΛΙΑ

GREEK AIRPORTS CODES

LGRP 220050Z 30009KT 9999 FEW018 15/04 Q1020 NOSIG=

EUROPEAN AIRPORTS CODES

EBBR 220050Z 23015KT 9999 SCT007 OVC009 10/09 Q0999 TEMPO 3200 -RADZ=